Time;durP1;ratioP1;P1;durP2;ratioP2;P2;SDS_P1;SDS_P2;PMS_P1;PMS_P2;Temp;Humidity;BMP_temperature;BMP_pressure;BME280_temperature;BME280_humidity;BME280_pressure;Samples;Min_cycle;Max_cycle;Signal;HPM_P1;HPM_P2
2023/06/22 00:01:27;;;;;;;9.70;6.50;;;;;;;;;;5002553;28;20038;-54
2023/06/22 00:03:52;;;;;;;8.95;6.65;;;;;;;;;;5009886;28;20037;-53
2023/06/22 00:06:18;;;;;;;9.45;7.20;;;;;;;;;;5015041;28;20022;-52
2023/06/22 00:08:43;;;;;;;10.38;7.70;;;;;;;;;;5011911;28;20594;-54
2023/06/22 00:11:09;;;;;;;10.30;6.95;;;;;;;;;;5014949;28;20022;-54
2023/06/22 00:13:34;;;;;;;13.23;7.60;;;;;;;;;;5013983;28;20038;-55
2023/06/22 00:16:00;;;;;;;9.52;6.95;;;;;;;;;;5014922;28;20068;-55
2023/06/22 00:18:27;;;;;;;10.00;6.90;;;;;;;;;;5012061;28;20037;-57
2023/06/22 00:20:57;;;;;;;11.07;7.45;;;;;;;;;;5017026;28;20037;-50
2023/06/22 00:23:23;;;;;;;12.00;7.57;;;;;;;;;;5034201;28;20033;-56
2023/06/22 00:25:49;;;;;;;12.73;7.53;;;;;;;;;;5033668;28;20030;-53
2023/06/22 00:28:14;;;;;;;9.23;7.35;;;;;;;;;;5014832;28;20142;-52
2023/06/22 00:30:40;;;;;;;11.52;7.55;;;;;;;;;;5010437;28;20121;-56
2023/06/22 00:33:07;;;;;;;14.55;8.25;;;;;;;;;;5012964;28;20317;-56
2023/06/22 00:35:33;;;;;;;12.45;8.23;;;;;;;;;;5013536;28;20044;-55
2023/06/22 00:38:00;;;;;;;13.93;9.00;;;;;;;;;;5014107;28;20041;-55
2023/06/22 00:40:30;;;;;;;11.82;8.02;;;;;;;;;;4996612;28;20388;-57
2023/06/22 00:42:55;;;;;;;14.15;7.80;;;;;;;;;;5032560;28;20055;-54
2023/06/22 00:45:22;;;;;;;12.70;8.48;;;;;;;;;;5034119;28;20116;-53
2023/06/22 00:47:50;;;;;;;11.40;8.05;;;;;;;;;;5033230;28;20062;-55
2023/06/22 00:50:20;;;;;;;13.63;8.45;;;;;;;;;;5032731;28;20038;-55
2023/06/22 00:52:56;;;;;;;12.48;8.15;;;;;;;;;;5032987;28;20029;-53
2023/06/22 00:55:22;;;;;;;9.57;7.50;;;;;;;;;;5018155;28;20064;-55
2023/06/22 00:57:47;;;;;;;10.45;7.90;;;;;;;;;;5013375;28;20668;-55
2023/06/22 01:00:16;;;;;;;12.65;7.95;;;;;;;;;;5011539;28;20041;-52
2023/06/22 01:02:44;;;;;;;12.13;8.95;;;;;;;;;;4993481;28;20061;-54
2023/06/22 01:05:10;;;;;;;13.63;8.75;;;;;;;;;;5000432;28;20030;-54
2023/06/22 01:07:38;;;;;;;12.15;9.27;;;;;;;;;;5013008;28;20036;-55
2023/06/22 01:10:14;;;;;;;11.38;9.05;;;;;;;;;;4998929;28;20038;-53
2023/06/22 01:12:45;;;;;;;11.82;9.02;;;;;;;;;;4993377;28;20114;-56
2023/06/22 01:15:19;;;;;;;9.98;8.02;;;;;;;;;;4993935;28;20490;-53
2023/06/22 01:17:46;;;;;;;12.82;9.35;;;;;;;;;;4991375;28;20027;-55
2023/06/22 01:20:15;;;;;;;11.10;8.88;;;;;;;;;;5009163;28;20061;-53
2023/06/22 01:22:51;;;;;;;14.18;9.38;;;;;;;;;;5021911;28;20025;-55
2023/06/22 01:25:20;;;;;;;12.18;8.45;;;;;;;;;;5033399;28;20034;-53
2023/06/22 01:28:00;;;;;;;12.27;9.43;;;;;;;;;;5032434;28;20178;-50
2023/06/22 01:30:28;;;;;;;12.63;10.27;;;;;;;;;;5013941;28;20104;-57
2023/06/22 01:32:56;;;;;;;12.88;10.07;;;;;;;;;;5012987;28;20125;-53
2023/06/22 01:35:23;;;;;;;12.13;9.88;;;;;;;;;;5013051;28;20084;-51
2023/06/22 01:37:49;;;;;;;13.00;8.95;;;;;;;;;;5008663;28;20025;-55
2023/06/22 01:40:16;;;;;;;14.43;9.95;;;;;;;;;;4997013;28;20060;-52
2023/06/22 01:42:42;;;;;;;14.80;9.98;;;;;;;;;;5008009;28;20034;-51
2023/06/22 01:45:11;;;;;;;12.32;9.52;;;;;;;;;;5012593;28;20506;-52
2023/06/22 01:47:36;;;;;;;12.27;10.43;;;;;;;;;;5010998;28;20037;-55
2023/06/22 01:50:02;;;;;;;14.75;10.38;;;;;;;;;;5031225;28;20033;-51
2023/06/22 01:52:27;;;;;;;13.80;11.35;;;;;;;;;;5029728;28;20355;-57
2023/06/22 01:54:53;;;;;;;13.55;10.57;;;;;;;;;;5012777;28;20038;-52
2023/06/22 01:57:19;;;;;;;15.35;11.23;;;;;;;;;;4993111;28;20121;-51
2023/06/22 02:00:04;;;;;;;14.07;11.10;;;;;;;;;;4992307;28;20092;-55
2023/06/22 02:02:36;;;;;;;14.77;11.30;;;;;;;;;;4992049;28;20038;-59
2023/06/22 02:05:09;;;;;;;13.93;11.25;;;;;;;;;;5012766;28;20029;-53
2023/06/22 02:07:41;;;;;;;15.98;12.43;;;;;;;;;;5011693;28;20483;-52
2023/06/22 02:10:09;;;;;;;16.50;12.70;;;;;;;;;;5011825;28;20053;-51
2023/06/22 02:12:36;;;;;;;16.70;12.52;;;;;;;;;;5011739;28;20041;-50
2023/06/22 02:15:01;;;;;;;17.75;12.48;;;;;;;;;;5011858;28;20030;-55
2023/06/22 02:17:27;;;;;;;16.05;11.98;;;;;;;;;;4992733;28;20034;-51
2023/06/22 02:19:52;;;;;;;15.88;12.50;;;;;;;;;;4991856;28;20046;-52
2023/06/22 02:22:18;;;;;;;15.10;12.77;;;;;;;;;;4992829;28;20031;-54
2023/06/22 02:24:43;;;;;;;14.82;12.35;;;;;;;;;;4991908;28;20030;-53
2023/06/22 02:27:10;;;;;;;17.75;13.25;;;;;;;;;;4993466;28;20413;-51
2023/06/22 02:29:35;;;;;;;14.90;11.95;;;;;;;;;;5005802;28;20129;-54
2023/06/22 02:32:01;;;;;;;15.60;11.70;;;;;;;;;;4992642;28;20077;-55
2023/06/22 02:34:26;;;;;;;16.92;12.50;;;;;;;;;;5007717;28;20030;-51
2023/06/22 02:36:51;;;;;;;15.00;12.35;;;;;;;;;;4994832;28;20336;-53
2023/06/22 02:39:22;;;;;;;15.00;12.95;;;;;;;;;;5011348;28;20030;-54
2023/06/22 02:41:48;;;;;;;15.57;13.38;;;;;;;;;;5017500;28;20045;-56
2023/06/22 02:44:13;;;;;;;15.13;12.80;;;;;;;;;;5030343;28;20083;-50
2023/06/22 02:46:39;;;;;;;17.55;13.65;;;;;;;;;;5031048;28;20041;-50
2023/06/22 02:49:04;;;;;;;15.48;13.65;;;;;;;;;;5032225;28;20033;-52
2023/06/22 02:51:33;;;;;;;17.35;13.50;;;;;;;;;;5010176;28;20041;-51
2023/06/22 02:53:59;;;;;;;16.42;13.30;;;;;;;;;;4991565;28;20062;-53
2023/06/22 02:56:24;;;;;;;17.08;13.10;;;;;;;;;;4991361;28;20077;-54
2023/06/22 02:58:50;;;;;;;16.80;13.40;;;;;;;;;;4991455;28;20038;-54
2023/06/22 03:01:15;;;;;;;17.08;13.35;;;;;;;;;;4998591;28;20038;-49
2023/06/22 03:03:40;;;;;;;18.48;14.27;;;;;;;;;;4990236;28;20126;-54
2023/06/22 03:06:06;;;;;;;16.65;13.18;;;;;;;;;;4992226;28;20022;-54
2023/06/22 03:08:31;;;;;;;16.33;13.55;;;;;;;;;;4997877;28;20382;-54
2023/06/22 03:10:57;;;;;;;18.80;14.05;;;;;;;;;;5030630;28;20032;-52
2023/06/22 03:13:22;;;;;;;18.92;12.98;;;;;;;;;;5024629;28;22107;-56
2023/06/22 03:15:48;;;;;;;15.70;13.65;;;;;;;;;;4991399;28;20384;-53
2023/06/22 03:18:13;;;;;;;15.60;13.60;;;;;;;;;;4992778;28;20383;-55
2023/06/22 03:20:39;;;;;;;15.20;12.88;;;;;;;;;;4999568;28;20029;-54
2023/06/22 03:23:05;;;;;;;18.08;13.70;;;;;;;;;;5011499;28;20033;-54
2023/06/22 03:25:30;;;;;;;17.10;13.93;;;;;;;;;;5003450;28;20056;-52
2023/06/22 03:27:55;;;;;;;17.38;14.52;;;;;;;;;;5005546;28;20701;-52
2023/06/22 03:30:21;;;;;;;19.02;14.23;;;;;;;;;;5011481;28;20463;-50
2023/06/22 03:32:47;;;;;;;20.08;14.90;;;;;;;;;;5009309;28;20030;-52
2023/06/22 03:35:13;;;;;;;18.52;15.38;;;;;;;;;;5000362;28;20229;-52
2023/06/22 03:37:39;;;;;;;17.55;15.45;;;;;;;;;;5014172;28;20037;-50
2023/06/22 03:40:05;;;;;;;22.00;15.85;;;;;;;;;;5025888;28;20036;-52
2023/06/22 03:42:31;;;;;;;22.15;14.85;;;;;;;;;;5010158;28;20120;-53
2023/06/22 03:44:56;;;;;;;19.05;15.38;;;;;;;;;;5010382;28;20133;-50
2023/06/22 03:47:22;;;;;;;18.60;14.50;;;;;;;;;;5010363;28;20076;-55
2023/06/22 03:49:48;;;;;;;17.00;13.98;;;;;;;;;;5010487;28;20041;-51
2023/06/22 03:52:13;;;;;;;17.13;15.30;;;;;;;;;;5011567;28;20030;-52
2023/06/22 03:54:38;;;;;;;18.00;15.15;;;;;;;;;;5010356;28;20088;-56
2023/06/22 03:57:05;;;;;;;16.98;14.60;;;;;;;;;;5004692;28;20069;-51
2023/06/22 03:59:32;;;;;;;17.17;14.00;;;;;;;;;;4994962;28;20481;-53
2023/06/22 04:01:57;;;;;;;19.67;15.45;;;;;;;;;;5000956;28;20023;-55
2023/06/22 04:04:23;;;;;;;17.40;14.32;;;;;;;;;;5008262;28;20071;-54
2023/06/22 04:06:48;;;;;;;20.48;15.07;;;;;;;;;;5001405;28;20467;-56
2023/06/22 04:09:13;;;;;;;16.00;13.25;;;;;;;;;;4995292;28;20072;-55
2023/06/22 04:11:39;;;;;;;16.52;13.80;;;;;;;;;;4993855;28;20044;-58
2023/06/22 04:14:04;;;;;;;17.73;14.93;;;;;;;;;;4994990;28;20026;-56
2023/06/22 04:16:30;;;;;;;16.70;14.30;;;;;;;;;;4995475;28;20030;-55
2023/06/22 04:18:55;;;;;;;18.35;14.82;;;;;;;;;;4994128;28;20810;-53
2023/06/22 04:21:20;;;;;;;19.70;14.07;;;;;;;;;;4994928;28;20066;-55
2023/06/22 04:23:46;;;;;;;19.17;14.80;;;;;;;;;;5000465;28;20384;-55
2023/06/22 04:26:14;;;;;;;17.65;14.23;;;;;;;;;;4994593;28;20110;-55
2023/06/22 04:28:39;;;;;;;17.20;14.38;;;;;;;;;;4993376;28;20092;-58
2023/06/22 04:31:05;;;;;;;17.85;14.15;;;;;;;;;;4999071;28;20038;-53
2023/06/22 04:33:31;;;;;;;17.80;14.15;;;;;;;;;;5014193;28;20038;-56
2023/06/22 04:35:57;;;;;;;15.75;13.70;;;;;;;;;;5013612;28;20026;-55
2023/06/22 04:38:23;;;;;;;18.27;14.05;;;;;;;;;;5033553;28;20029;-54
2023/06/22 04:40:49;;;;;;;16.98;13.90;;;;;;;;;;5033367;28;20092;-56
2023/06/22 04:43:15;;;;;;;18.58;13.50;;;;;;;;;;5006227;28;20116;-50
2023/06/22 04:45:41;;;;;;;17.42;13.30;;;;;;;;;;5014003;28;20058;-57
2023/06/22 04:48:06;;;;;;;19.65;14.05;;;;;;;;;;5013956;28;20104;-57
2023/06/22 04:50:32;;;;;;;17.98;13.90;;;;;;;;;;5033167;28;20187;-54
2023/06/22 04:52:57;;;;;;;18.33;13.98;;;;;;;;;;5030854;28;20905;-55
2023/06/22 04:55:25;;;;;;;17.50;13.68;;;;;;;;;;5033941;28;20046;-55
2023/06/22 04:57:51;;;;;;;17.98;13.40;;;;;;;;;;5033126;28;20469;-52
2023/06/22 05:00:22;;;;;;;15.35;12.52;;;;;;;;;;5023319;28;20029;-55
2023/06/22 05:02:48;;;;;;;15.55;13.25;;;;;;;;;;5013428;28;20039;-55
2023/06/22 05:05:15;;;;;;;16.90;13.85;;;;;;;;;;5022883;28;20387;-53
2023/06/22 05:07:47;;;;;;;16.05;13.15;;;;;;;;;;5000638;28;20081;-58
2023/06/22 05:10:12;;;;;;;18.25;13.75;;;;;;;;;;5007125;28;20034;-55
2023/06/22 05:12:39;;;;;;;15.88;12.93;;;;;;;;;;5013810;28;20350;-55
2023/06/22 05:15:06;;;;;;;16.27;12.75;;;;;;;;;;5007581;28;20030;-59
2023/06/22 05:17:32;;;;;;;15.38;13.60;;;;;;;;;;5012900;28;20034;-52
2023/06/22 05:19:57;;;;;;;16.48;13.55;;;;;;;;;;5010720;28;20030;-57
2023/06/22 05:22:22;;;;;;;20.40;13.82;;;;;;;;;;5012405;28;20092;-55
2023/06/22 05:24:48;;;;;;;18.48;13.32;;;;;;;;;;5010885;28;20494;-57
2023/06/22 05:27:14;;;;;;;15.77;12.80;;;;;;;;;;5012990;28;20056;-56
2023/06/22 05:29:40;;;;;;;17.17;13.48;;;;;;;;;;5006634;28;20068;-58
2023/06/22 05:32:06;;;;;;;15.95;13.30;;;;;;;;;;4992914;28;20069;-52
2023/06/22 05:34:31;;;;;;;16.67;12.88;;;;;;;;;;5005243;28;20026;-57
2023/06/22 05:36:58;;;;;;;17.98;14.13;;;;;;;;;;5011693;28;20497;-56
2023/06/22 05:39:25;;;;;;;19.77;14.40;;;;;;;;;;5012386;28;20049;-56
2023/06/22 05:41:51;;;;;;;16.38;13.60;;;;;;;;;;5018421;28;20052;-56
2023/06/22 05:44:16;;;;;;;16.63;14.32;;;;;;;;;;5029857;28;20037;-55
2023/06/22 05:46:48;;;;;;;15.23;12.77;;;;;;;;;;5012457;28;20030;-58
2023/06/22 05:49:13;;;;;;;16.58;14.48;;;;;;;;;;5015200;28;20033;-56
2023/06/22 05:51:39;;;;;;;19.08;14.73;;;;;;;;;;5012183;28;20387;-52
2023/06/22 05:54:05;;;;;;;17.25;12.70;;;;;;;;;;5003786;28;20214;-52
2023/06/22 05:56:30;;;;;;;17.65;14.68;;;;;;;;;;5012378;28;20492;-58
2023/06/22 05:58:56;;;;;;;16.88;13.82;;;;;;;;;;5011628;28;20034;-56
2023/06/22 06:01:21;;;;;;;17.77;14.88;;;;;;;;;;5012525;28;20041;-54
2023/06/22 06:03:49;;;;;;;17.52;15.10;;;;;;;;;;4999063;28;20045;-55
2023/06/22 06:06:15;;;;;;;18.23;14.65;;;;;;;;;;5012517;28;20092;-55
2023/06/22 06:08:41;;;;;;;17.67;13.70;;;;;;;;;;5010731;28;20101;-57
2023/06/22 06:11:06;;;;;;;18.58;15.23;;;;;;;;;;5011598;28;20037;-56
2023/06/22 06:13:31;;;;;;;24.23;14.25;;;;;;;;;;5011178;28;20034;-56
2023/06/22 06:15:57;;;;;;;15.95;12.45;;;;;;;;;;5011049;28;20483;-56
2023/06/22 06:18:23;;;;;;;17.83;14.00;;;;;;;;;;5015904;28;20037;-55
2023/06/22 06:20:48;;;;;;;20.20;15.18;;;;;;;;;;5015312;28;20041;-56
2023/06/22 06:23:14;;;;;;;20.15;14.73;;;;;;;;;;5012645;28;20079;-57
2023/06/22 06:25:39;;;;;;;16.92;13.32;;;;;;;;;;5012298;28;20476;-56
2023/06/22 06:28:05;;;;;;;15.05;12.32;;;;;;;;;;5011377;28;20030;-55
2023/06/22 06:30:31;;;;;;;16.17;13.50;;;;;;;;;;5007430;28;20087;-54
2023/06/22 06:32:56;;;;;;;17.40;13.20;;;;;;;;;;5008465;28;20041;-55
2023/06/22 06:35:21;;;;;;;18.00;13.25;;;;;;;;;;5014938;28;20036;-54
2023/06/22 06:37:49;;;;;;;15.68;13.43;;;;;;;;;;4993761;28;20037;-56
2023/06/22 06:40:16;;;;;;;19.38;14.05;;;;;;;;;;5009856;28;20076;-54
2023/06/22 06:42:45;;;;;;;17.90;14.45;;;;;;;;;;5011901;28;20387;-58
2023/06/22 06:45:16;;;;;;;18.48;13.18;;;;;;;;;;5010368;28;20033;-56
2023/06/22 06:47:41;;;;;;;15.00;13.32;;;;;;;;;;5012002;28;20044;-57
2023/06/22 06:50:07;;;;;;;18.45;14.57;;;;;;;;;;5010291;28;20034;-56
2023/06/22 06:52:33;;;;;;;17.38;14.63;;;;;;;;;;5012152;28;20036;-58
2023/06/22 06:54:59;;;;;;;17.80;14.70;;;;;;;;;;5008610;28;20033;-59
2023/06/22 06:57:28;;;;;;;20.90;15.27;;;;;;;;;;5011883;28;20077;-53
2023/06/22 06:59:56;;;;;;;17.30;14.80;;;;;;;;;;5020654;28;20041;-57
2023/06/22 07:02:23;;;;;;;20.52;14.10;;;;;;;;;;5011784;28;20026;-57
2023/06/22 07:04:48;;;;;;;16.90;14.23;;;;;;;;;;5010884;28;20029;-58
2023/06/22 07:07:14;;;;;;;18.25;14.65;;;;;;;;;;5010466;28;20037;-58
2023/06/22 07:09:39;;;;;;;20.98;14.20;;;;;;;;;;5011049;28;20034;-56
2023/06/22 07:12:05;;;;;;;19.23;14.40;;;;;;;;;;5011258;28;20026;-57
2023/06/22 07:14:31;;;;;;;16.63;14.82;;;;;;;;;;5011736;28;20033;-58
2023/06/22 07:16:57;;;;;;;16.80;14.00;;;;;;;;;;5024386;28;20539;-58
2023/06/22 07:19:26;;;;;;;20.65;14.05;;;;;;;;;;5030045;28;20477;-57
2023/06/22 07:21:53;;;;;;;18.70;14.93;;;;;;;;;;5010402;28;20052;-57
2023/06/22 07:24:22;;;;;;;18.25;14.38;;;;;;;;;;5011846;28;20065;-56
2023/06/22 07:26:49;;;;;;;15.65;13.57;;;;;;;;;;5022984;28;20080;-59
2023/06/22 07:29:16;;;;;;;18.20;13.93;;;;;;;;;;5030831;28;20041;-58
2023/06/22 07:31:42;;;;;;;17.50;14.52;;;;;;;;;;5012681;28;20653;-56
2023/06/22 07:34:07;;;;;;;18.90;13.57;;;;;;;;;;5009603;28;20041;-57
2023/06/22 07:36:35;;;;;;;18.77;13.65;;;;;;;;;;5011112;28;20034;-58
2023/06/22 07:39:01;;;;;;;16.63;13.77;;;;;;;;;;5005131;28;20045;-56
2023/06/22 07:41:26;;;;;;;17.90;14.73;;;;;;;;;;5011591;28;20041;-56
2023/06/22 07:43:51;;;;;;;18.73;14.18;;;;;;;;;;5012154;28;20332;-56
2023/06/22 07:46:17;;;;;;;15.63;13.70;;;;;;;;;;5014749;28;20030;-52
2023/06/22 07:48:43;;;;;;;16.45;13.82;;;;;;;;;;5014794;28;20095;-55
2023/06/22 07:51:11;;;;;;;16.23;13.30;;;;;;;;;;5019586;28;20025;-57
2023/06/22 07:53:36;;;;;;;17.73;13.18;;;;;;;;;;5011682;28;20030;-55
2023/06/22 07:56:06;;;;;;;16.50;13.82;;;;;;;;;;5014051;28;20030;-55
2023/06/22 07:58:32;;;;;;;16.58;13.60;;;;;;;;;;5001982;28;20036;-57
2023/06/22 08:00:57;;;;;;;16.08;13.10;;;;;;;;;;5013592;28;20038;-57
2023/06/22 08:03:23;;;;;;;15.02;13.43;;;;;;;;;;5015058;28;20128;-56
2023/06/22 08:05:48;;;;;;;17.42;13.50;;;;;;;;;;5013976;28;20080;-56
2023/06/22 08:08:14;;;;;;;17.95;14.85;;;;;;;;;;5012034;28;20038;-54
2023/06/22 08:10:40;;;;;;;17.33;14.82;;;;;;;;;;5015656;28;20030;-60
2023/06/22 08:13:06;;;;;;;17.17;14.68;;;;;;;;;;5013016;28;20029;-57
2023/06/22 08:15:31;;;;;;;22.08;14.70;;;;;;;;;;5014734;28;20029;-56
2023/06/22 08:17:57;;;;;;;16.13;13.90;;;;;;;;;;5033493;28;20056;-56
2023/06/22 08:20:23;;;;;;;17.17;13.98;;;;;;;;;;5026475;28;20021;-56
2023/06/22 08:22:48;;;;;;;18.40;14.70;;;;;;;;;;5033526;28;20389;-60
2023/06/22 08:25:14;;;;;;;18.02;13.93;;;;;;;;;;5017122;28;20490;-55
2023/06/22 08:27:39;;;;;;;19.35;16.08;;;;;;;;;;5023148;28;20030;-57
2023/06/22 08:30:07;;;;;;;17.13;14.73;;;;;;;;;;5032753;28;20040;-58
2023/06/22 08:32:32;;;;;;;19.98;16.08;;;;;;;;;;5015078;28;20061;-57
2023/06/22 08:34:58;;;;;;;17.52;15.73;;;;;;;;;;5013687;28;20030;-56
2023/06/22 08:37:24;;;;;;;19.45;16.83;;;;;;;;;;5014457;28;20060;-52
2023/06/22 08:39:50;;;;;;;20.75;15.25;;;;;;;;;;4996682;28;20038;-59
2023/06/22 08:42:16;;;;;;;18.25;15.18;;;;;;;;;;5012767;28;20050;-51
2023/06/22 08:44:41;;;;;;;17.98;15.02;;;;;;;;;;5013113;28;20440;-53
2023/06/22 08:47:07;;;;;;;17.05;15.25;;;;;;;;;;5013148;28;20659;-52
2023/06/22 08:49:32;;;;;;;18.60;15.50;;;;;;;;;;5012051;28;20034;-54
2023/06/22 08:51:57;;;;;;;23.50;15.35;;;;;;;;;;5013298;28;20068;-55
2023/06/22 08:54:23;;;;;;;18.00;15.38;;;;;;;;;;5012446;28;20045;-48
2023/06/22 08:56:48;;;;;;;18.67;14.73;;;;;;;;;;5019096;28;20052;-62
2023/06/22 08:59:13;;;;;;;17.92;14.85;;;;;;;;;;5013140;28;20133;-53
2023/06/22 09:01:39;;;;;;;15.50;13.82;;;;;;;;;;5013923;28;20080;-54
2023/06/22 09:04:05;;;;;;;18.80;15.43;;;;;;;;;;5012856;28;20026;-53
2023/06/22 09:06:31;;;;;;;15.90;14.20;;;;;;;;;;5019699;28;20038;-54
2023/06/22 09:08:59;;;;;;;17.58;14.85;;;;;;;;;;5012683;28;20041;-57
2023/06/22 09:11:25;;;;;;;21.38;15.95;;;;;;;;;;5013460;28;20078;-56
2023/06/22 09:13:51;;;;;;;17.15;15.35;;;;;;;;;;5013182;28;20111;-58
2023/06/22 09:16:17;;;;;;;16.27;14.20;;;;;;;;;;5012699;28;20026;-52
2023/06/22 09:18:43;;;;;;;17.20;14.57;;;;;;;;;;5021827;28;20041;-56
2023/06/22 09:21:08;;;;;;;15.52;13.93;;;;;;;;;;5012811;28;20604;-56
2023/06/22 09:23:34;;;;;;;18.00;14.70;;;;;;;;;;5005772;28;20040;-54
2023/06/22 09:25:59;;;;;;;17.60;14.15;;;;;;;;;;4997603;28;20430;-53
2023/06/22 09:28:25;;;;;;;16.00;13.95;;;;;;;;;;5020213;28;20038;-56
2023/06/22 09:30:51;;;;;;;17.05;13.50;;;;;;;;;;5010035;28;20529;-58
2023/06/22 09:33:16;;;;;;;15.05;13.45;;;;;;;;;;4994285;28;20030;-57
2023/06/22 09:35:41;;;;;;;15.88;12.88;;;;;;;;;;5008895;28;20030;-56
2023/06/22 09:38:07;;;;;;;15.27;13.68;;;;;;;;;;5010887;28;20839;-54
2023/06/22 09:40:39;;;;;;;16.40;13.63;;;;;;;;;;5007934;28;20051;-54
2023/06/22 09:43:05;;;;;;;15.23;12.45;;;;;;;;;;5007851;28;20065;-57
2023/06/22 09:45:30;;;;;;;13.75;11.48;;;;;;;;;;5013128;28;20038;-55
2023/06/22 09:47:55;;;;;;;14.82;12.70;;;;;;;;;;5011961;28;20038;-55
2023/06/22 09:50:21;;;;;;;13.32;11.93;;;;;;;;;;5030044;28;20038;-52
2023/06/22 09:52:50;;;;;;;13.77;11.20;;;;;;;;;;5014352;28;20038;-56
2023/06/22 09:55:16;;;;;;;15.27;10.95;;;;;;;;;;4997474;28;20033;-55
2023/06/22 09:57:41;;;;;;;12.25;11.05;;;;;;;;;;5010456;28;20383;-55
2023/06/22 10:00:12;;;;;;;13.75;11.23;;;;;;;;;;5012342;28;20025;-55
2023/06/22 10:02:38;;;;;;;15.55;11.30;;;;;;;;;;5012902;28;20034;-57
2023/06/22 10:05:04;;;;;;;12.00;10.07;;;;;;;;;;5010198;28;20036;-57
2023/06/22 10:07:29;;;;;;;14.10;11.98;;;;;;;;;;5011788;28;20111;-56
2023/06/22 10:09:54;;;;;;;14.25;12.57;;;;;;;;;;5010257;28;20050;-55
2023/06/22 10:12:20;;;;;;;13.43;11.63;;;;;;;;;;5012786;28;20030;-56
2023/06/22 10:14:45;;;;;;;14.38;11.70;;;;;;;;;;5010878;28;20430;-57
2023/06/22 10:17:10;;;;;;;17.98;12.15;;;;;;;;;;5007697;28;20088;-56
2023/06/22 10:19:37;;;;;;;15.57;12.02;;;;;;;;;;5015482;28;20080;-54
2023/06/22 10:22:04;;;;;;;13.38;11.55;;;;;;;;;;5019889;28;20100;-53
2023/06/22 10:24:29;;;;;;;14.05;11.55;;;;;;;;;;5012282;28;20418;-50
2023/06/22 10:26:54;;;;;;;14.73;11.38;;;;;;;;;;5008170;28;20038;-54
2023/06/22 10:29:20;;;;;;;15.15;11.93;;;;;;;;;;5010035;28;20038;-48
2023/06/22 10:31:46;;;;;;;13.88;11.40;;;;;;;;;;5010993;28;20033;-55
2023/06/22 10:34:11;;;;;;;12.35;10.60;;;;;;;;;;5011441;28;20586;-52
2023/06/22 10:36:38;;;;;;;12.40;11.10;;;;;;;;;;5010424;28;20083;-53
2023/06/22 10:39:03;;;;;;;13.95;12.13;;;;;;;;;;5015712;28;20037;-58
2023/06/22 10:41:30;;;;;;;13.60;10.85;;;;;;;;;;4997361;28;20042;-52
2023/06/22 10:43:56;;;;;;;15.45;11.38;;;;;;;;;;5011541;28;20109;-50
2023/06/22 10:46:21;;;;;;;13.20;11.63;;;;;;;;;;5011956;28;20121;-53
2023/06/22 10:48:46;;;;;;;14.10;10.60;;;;;;;;;;5011267;28;20133;-57
2023/06/22 10:51:12;;;;;;;13.15;11.27;;;;;;;;;;5010695;28;20645;-55
2023/06/22 10:53:37;;;;;;;14.20;11.73;;;;;;;;;;5011731;28;20033;-55
2023/06/22 10:56:03;;;;;;;14.02;11.10;;;;;;;;;;5010797;28;20076;-55
2023/06/22 10:58:28;;;;;;;13.77;11.35;;;;;;;;;;5017277;28;20036;-53
2023/06/22 11:00:54;;;;;;;14.60;12.63;;;;;;;;;;5028599;28;20033;-55
2023/06/22 11:03:19;;;;;;;15.90;12.48;;;;;;;;;;5005887;28;20080;-55
2023/06/22 11:05:45;;;;;;;16.58;12.45;;;;;;;;;;5012169;28;20429;-58
2023/06/22 11:08:11;;;;;;;14.55;12.50;;;;;;;;;;5010207;28;20962;-57
2023/06/22 11:10:36;;;;;;;14.52;11.38;;;;;;;;;;5021419;28;20056;-56
2023/06/22 11:13:04;;;;;;;15.50;12.93;;;;;;;;;;5015130;28;20034;-56
2023/06/22 11:15:29;;;;;;;13.50;12.10;;;;;;;;;;5029959;28;20364;-53
2023/06/22 11:17:54;;;;;;;16.33;12.25;;;;;;;;;;5015429;28;20041;-57
2023/06/22 11:20:20;;;;;;;15.60;13.48;;;;;;;;;;5011338;28;20022;-55
2023/06/22 11:22:45;;;;;;;17.73;13.23;;;;;;;;;;5011591;28;20107;-55
2023/06/22 11:25:12;;;;;;;15.68;13.00;;;;;;;;;;5010792;28;20057;-58
2023/06/22 11:27:37;;;;;;;13.93;11.80;;;;;;;;;;5011482;28;20042;-58
2023/06/22 11:30:03;;;;;;;15.45;13.85;;;;;;;;;;5010283;28;20038;-54
2023/06/22 11:32:29;;;;;;;17.45;13.82;;;;;;;;;;5020574;28;20084;-53
2023/06/22 11:34:54;;;;;;;15.50;12.93;;;;;;;;;;5010663;28;20046;-56
2023/06/22 11:37:20;;;;;;;15.45;13.20;;;;;;;;;;5012356;28;20053;-56
2023/06/22 11:39:45;;;;;;;17.38;13.68;;;;;;;;;;5015671;28;20108;-54
2023/06/22 11:42:10;;;;;;;17.13;14.13;;;;;;;;;;5008746;28;20501;-53
2023/06/22 11:44:36;;;;;;;17.20;15.30;;;;;;;;;;5008566;28;20041;-56
2023/06/22 11:47:03;;;;;;;19.45;17.30;;;;;;;;;;5006043;28;20657;-52
2023/06/22 11:49:29;;;;;;;18.80;16.30;;;;;;;;;;5002094;28;20044;-55
2023/06/22 11:51:55;;;;;;;20.42;16.75;;;;;;;;;;5011035;28;20509;-57
2023/06/22 11:54:20;;;;;;;21.00;18.08;;;;;;;;;;5001197;28;20038;-56
2023/06/22 11:56:46;;;;;;;24.58;18.55;;;;;;;;;;5002378;28;20038;-52
2023/06/22 11:59:11;;;;;;;21.27;18.13;;;;;;;;;;5009759;28;20038;-55
2023/06/22 12:01:36;;;;;;;22.95;18.65;;;;;;;;;;5011409;28;20037;-56
2023/06/22 12:04:05;;;;;;;25.05;20.58;;;;;;;;;;5001559;28;20037;-56
2023/06/22 12:06:32;;;;;;;27.60;22.13;;;;;;;;;;5030242;28;20087;-56
2023/06/22 12:08:57;;;;;;;28.30;22.98;;;;;;;;;;5001386;28;20044;-56
2023/06/22 12:11:22;;;;;;;28.50;23.55;;;;;;;;;;5011082;28;20030;-56
2023/06/22 12:13:48;;;;;;;27.33;23.48;;;;;;;;;;5010871;28;20037;-59
2023/06/22 12:16:13;;;;;;;31.40;26.40;;;;;;;;;;5018201;28;20537;-59
2023/06/22 12:18:38;;;;;;;32.28;26.75;;;;;;;;;;5013588;28;20045;-58
2023/06/22 12:21:04;;;;;;;37.95;28.17;;;;;;;;;;5010470;28;20431;-59
2023/06/22 12:23:29;;;;;;;38.35;28.77;;;;;;;;;;5010904;28;20083;-59
2023/06/22 12:25:54;;;;;;;41.13;30.10;;;;;;;;;;5008888;28;20470;-60
2023/06/22 12:28:20;;;;;;;41.17;30.83;;;;;;;;;;5012164;28;20061;-60
2023/06/22 12:30:45;;;;;;;43.05;31.27;;;;;;;;;;5013950;28;20172;-60
2023/06/22 12:33:11;;;;;;;42.08;31.35;;;;;;;;;;5013703;28;20117;-61
2023/06/22 12:35:36;;;;;;;40.42;30.42;;;;;;;;;;5029681;28;20040;-58
2023/06/22 12:38:02;;;;;;;41.90;31.35;;;;;;;;;;5022195;28;20052;-58
2023/06/22 12:40:28;;;;;;;43.17;32.78;;;;;;;;;;5003955;28;20422;-58
2023/06/22 12:42:53;;;;;;;44.72;32.05;;;;;;;;;;5004024;28;20157;-59
2023/06/22 12:45:21;;;;;;;45.55;33.78;;;;;;;;;;5013529;28;20061;-59
2023/06/22 12:47:46;;;;;;;43.85;32.67;;;;;;;;;;5012945;28;20038;-59
2023/06/22 12:50:12;;;;;;;41.58;32.88;;;;;;;;;;5012615;28;20088;-59
2023/06/22 12:52:40;;;;;;;43.45;31.83;;;;;;;;;;5014072;28;20038;-59
2023/06/22 12:55:07;;;;;;;40.97;30.17;;;;;;;;;;5010820;28;20026;-60
2023/06/22 12:57:32;;;;;;;41.38;31.13;;;;;;;;;;5012288;28;20041;-59
2023/06/22 13:00:00;;;;;;;39.63;29.73;;;;;;;;;;5013478;28;20047;-59
2023/06/22 13:02:25;;;;;;;40.13;30.98;;;;;;;;;;5017504;28;20033;-59
2023/06/22 13:04:51;;;;;;;41.75;32.20;;;;;;;;;;5014274;28;20038;-60
2023/06/22 13:07:16;;;;;;;37.60;30.15;;;;;;;;;;5011628;28;20045;-60
2023/06/22 13:09:41;;;;;;;39.67;29.40;;;;;;;;;;5012488;28;20049;-60
2023/06/22 13:12:07;;;;;;;36.28;30.10;;;;;;;;;;5012716;28;20148;-60
2023/06/22 13:14:33;;;;;;;38.00;30.15;;;;;;;;;;5013486;28;20117;-61
2023/06/22 13:16:58;;;;;;;40.17;29.45;;;;;;;;;;5012969;28;20447;-61
2023/06/22 13:19:24;;;;;;;33.78;27.85;;;;;;;;;;5006386;28;20049;-59
2023/06/22 13:21:49;;;;;;;33.33;28.63;;;;;;;;;;5011713;28;20030;-59
2023/06/22 13:24:16;;;;;;;38.00;29.90;;;;;;;;;;5012729;28;20079;-60
2023/06/22 13:26:41;;;;;;;37.55;29.80;;;;;;;;;;5013535;28;20036;-60
2023/06/22 13:29:07;;;;;;;41.70;31.30;;;;;;;;;;5009919;28;20116;-60
2023/06/22 13:31:33;;;;;;;42.70;31.15;;;;;;;;;;5011646;28;20088;-60
2023/06/22 13:33:59;;;;;;;43.90;33.20;;;;;;;;;;5011942;28;20038;-61
2023/06/22 13:36:26;;;;;;;42.78;32.05;;;;;;;;;;5011696;28;20041;-60
2023/06/22 13:38:51;;;;;;;43.97;32.95;;;;;;;;;;5012219;28;20032;-60
2023/06/22 13:41:17;;;;;;;45.60;33.03;;;;;;;;;;5024994;28;20184;-60
2023/06/22 13:43:42;;;;;;;42.00;32.40;;;;;;;;;;5012150;28;20180;-58
2023/06/22 13:46:08;;;;;;;42.17;31.42;;;;;;;;;;5012558;28;20447;-60
2023/06/22 13:48:33;;;;;;;38.50;30.77;;;;;;;;;;5013091;28;20470;-60
2023/06/22 13:50:59;;;;;;;39.30;30.55;;;;;;;;;;5012199;28;20088;-61
2023/06/22 13:53:26;;;;;;;40.70;31.00;;;;;;;;;;5006989;28;20042;-60
2023/06/22 13:55:51;;;;;;;37.15;29.08;;;;;;;;;;5012296;28;20034;-60
2023/06/22 13:58:19;;;;;;;38.13;30.10;;;;;;;;;;5005746;28;20049;-60
2023/06/22 14:00:48;;;;;;;34.97;27.00;;;;;;;;;;5012606;28;20486;-60
2023/06/22 14:03:15;;;;;;;36.92;27.23;;;;;;;;;;5010815;28;20033;-60
2023/06/22 14:05:41;;;;;;;35.80;26.38;;;;;;;;;;5013046;28;20091;-61
2023/06/22 14:08:07;;;;;;;32.40;24.65;;;;;;;;;;5014705;28;20108;-60
2023/06/22 14:10:33;;;;;;;30.27;23.83;;;;;;;;;;5012410;28;20117;-59
2023/06/22 14:12:59;;;;;;;29.13;23.92;;;;;;;;;;4999937;28;20034;-59